Dades meteomassalio
 
Diari Summary for Febrer 21, 2018 Units:  Both    English   Metric
« Previous Day
Next Day »
Diari Semanal Mensual Anual Personalitzat
  Actual: Maxima: Minima: Mijana:
Temperatura: 6.7 °F /  -14.1 °C TemperatureC °F /  -17.8 °C 5.6 °F /  -14.7 °C 9 °F /  -12.8 °C
Rosada: -3.9 °F /  -19.9 °C DewpointC °F /  -17.8 °C -4.2 °F /  -20.1 °C 1.9 °F /  -16.7 °C
Humitat: 47 % Humidity % 44 % 62 %
Velocitat del vent: 29.6 mph /  47.6 km/h WindSpeedKMH mph /  0 km/h - 29.6 mph /  47.6 km/h
Racha vent: 29.6 mph /  47.6 km/h WindSpeedGustKMH mph /  0 km/h - -
Vent:NW - - NW
Pressio: 1011.1 in /  34235.8 hPa PressurehPa in /  0 hPa 1009.4 in /  34178.3 hPa -
Pluja: 0.0 in /  0 mm      
Historical Graphs
 
 
Tabular Data for Febrer 21, 2018
Time Temperature Dew Point Pressure Wind Wind Speed Wind Gust Humidity Rainfall Rate (Hourly) solar Conditions
TemperatureC °F /  -17.8 °C DewpointC °F /  -17.8 °C PressurehPa in /  0 hPa Calm     Humidity % HourlyPrecipMM in /  0 mm SolarRadiationWatts/m^2 W/m2 Conditions
00:03 7.8 °F /  -13.4 °C 3.2 °F /  -16 °C 1015.1 in /  34371.3 hPa NW 31.5 mph /  50.7 km/h 31.5 mph /  50.7 km/h 73 % 0.0 in /  0 mm 0.0 W/m2 CLR
00:08 7.8 °F /  -13.4 °C 3.2 °F /  -16 °C 1015.1 in /  34371.3 hPa WNW 25.9 mph /  41.7 km/h 25.9 mph /  41.7 km/h 73 % 0.0 in /  0 mm 0.0 W/m2 CLR
00:13 7.8 °F /  -13.4 °C 3.2 °F /  -16 °C 1015.5 in /  34384.8 hPa WNW 22.2 mph /  35.7 km/h 22.2 mph /  35.7 km/h 73 % 0.0 in /  0 mm 0.0 W/m2 CLR
00:18 7.8 °F /  -13.4 °C 3.2 °F /  -16 °C 1015.5 in /  34384.8 hPa NW 20.9 mph /  33.6 km/h 20.9 mph /  33.6 km/h 73 % 0.0 in /  0 mm 0.0 W/m2 CLR
00:23 7.8 °F /  -13.4 °C 3.4 °F /  -15.9 °C 1015.1 in /  34371.3 hPa West 18.5 mph /  29.8 km/h 18.5 mph /  29.8 km/h 74 % 0.0 in /  0 mm 0.0 W/m2 CLR
00:28 7.8 °F /  -13.4 °C 3.4 °F /  -15.9 °C 1015.1 in /  34371.3 hPa NW 31.5 mph /  50.7 km/h 31.5 mph /  50.7 km/h 74 % 0.0 in /  0 mm 0.0 W/m2 CLR
00:33 7.8 °F /  -13.4 °C 3.4 °F /  -15.9 °C 1015.1 in /  34371.3 hPa WNW 25.9 mph /  41.7 km/h 25.9 mph /  41.7 km/h 74 % 0.0 in /  0 mm 0.0 W/m2 CLR
00:38 7.8 °F /  -13.4 °C 3.4 °F /  -15.9 °C 1015.1 in /  34371.3 hPa WNW 18.5 mph /  29.8 km/h 18.5 mph /  29.8 km/h 74 % 0.0 in /  0 mm 0.0 W/m2 CLR
00:43 7.8 °F /  -13.4 °C 3.4 °F /  -15.9 °C 1015.1 in /  34371.3 hPa WNW 29.6 mph /  47.6 km/h 29.6 mph /  47.6 km/h 74 % 0.0 in /  0 mm 0.0 W/m2 CLR
00:48 7.8 °F /  -13.4 °C 3.4 °F /  -15.9 °C 1015.1 in /  34371.3 hPa NW 29.0 mph /  46.7 km/h 29.0 mph /  46.7 km/h 74 % 0.0 in /  0 mm 0.0 W/m2 CLR
00:53 7.2 °F /  -13.8 °C 2.9 °F /  -16.2 °C 1015.1 in /  34371.3 hPa NW 18.5 mph /  29.8 km/h 18.5 mph /  29.8 km/h 74 % 0.0 in /  0 mm 0.0 W/m2 CLR
00:58 7.8 °F /  -13.4 °C 3.4 °F /  -15.9 °C 1015.1 in /  34371.3 hPa NW 25.9 mph /  41.7 km/h 25.9 mph /  41.7 km/h 74 % 0.0 in /  0 mm 0.0 W/m2 CLR
01:03 7.8 °F /  -13.4 °C 3.4 °F /  -15.9 °C 1014.8 in /  34361.1 hPa WNW 22.2 mph /  35.7 km/h 22.2 mph /  35.7 km/h 74 % 0.0 in /  0 mm 0.0 W/m2 CLR
01:08 7.8 °F /  -13.4 °C 3.4 °F /  -15.9 °C 1014.8 in /  34361.1 hPa NW 29.6 mph /  47.6 km/h 29.6 mph /  47.6 km/h 74 % 0.0 in /  0 mm 0.0 W/m2 CLR
01:13 7.8 °F /  -13.4 °C 3.4 °F /  -15.9 °C 1014.8 in /  34361.1 hPa WNW 24.1 mph /  38.8 km/h 24.1 mph /  38.8 km/h 74 % 0.0 in /  0 mm 0.0 W/m2 CLR
01:18 7.2 °F /  -13.8 °C 2.9 °F /  -16.2 °C 1014.4 in /  34347.6 hPa WNW 27.8 mph /  44.7 km/h 27.8 mph /  44.7 km/h 74 % 0.0 in /  0 mm 0.0 W/m2 CLR
01:23 7.8 °F /  -13.4 °C 3.4 °F /  -15.9 °C 1014.8 in /  34361.1 hPa WNW 18.5 mph /  29.8 km/h 18.5 mph /  29.8 km/h 74 % 0.0 in /  0 mm 0.0 W/m2 CLR
01:28 7.8 °F /  -13.4 °C 3.4 °F /  -15.9 °C 1014.8 in /  34361.1 hPa WNW 25.9 mph /  41.7 km/h 25.9 mph /  41.7 km/h 74 % 0.0 in /  0 mm 0.0 W/m2 CLR
01:33 7.8 °F /  -13.4 °C 3.4 °F /  -15.9 °C 1014.4 in /  34347.6 hPa WNW 22.2 mph /  35.7 km/h 22.2 mph /  35.7 km/h 74 % 0.0 in /  0 mm 0.0 W/m2 CLR
01:38 7.8 °F /  -13.4 °C 3.4 °F /  -15.9 °C 1014.1 in /  34337.4 hPa NNW 30.6 mph /  49.2 km/h 30.6 mph /  49.2 km/h 74 % 0.0 in /  0 mm 0.0 W/m2 CLR
01:43 7.8 °F /  -13.4 °C 3.4 °F /  -15.9 °C 1014.1 in /  34337.4 hPa WNW 20.9 mph /  33.6 km/h 20.9 mph /  33.6 km/h 74 % 0.0 in /  0 mm 0.0 W/m2 CLR
01:49 7.2 °F /  -13.8 °C 2.9 °F /  -16.2 °C 1014.1 in /  34337.4 hPa NW 24.1 mph /  38.8 km/h 24.1 mph /  38.8 km/h 74 % 0.0 in /  0 mm 0.0 W/m2 CLR
01:54 7.2 °F /  -13.8 °C 2.9 °F /  -16.2 °C 1014.1 in /  34337.4 hPa NNW 24.1 mph /  38.8 km/h 24.1 mph /  38.8 km/h 74 % 0.0 in /  0 mm 0.0 W/m2 CLR
01:59 7.8 °F /  -13.4 °C 3.4 °F /  -15.9 °C 1014.1 in /  34337.4 hPa WNW 18.5 mph /  29.8 km/h 18.5 mph /  29.8 km/h 74 % 0.0 in /  0 mm 0.0 W/m2 CLR
02:04 7.8 °F /  -13.4 °C 3.4 °F /  -15.9 °C 1014.1 in /  34337.4 hPa NW 25.9 mph /  41.7 km/h 25.9 mph /  41.7 km/h 74 % 0.0 in /  0 mm 0.0 W/m2 CLR
02:09 7.8 °F /  -13.4 °C 3.4 °F /  -15.9 °C 1014.1 in /  34337.4 hPa WNW 18.5 mph /  29.8 km/h 18.5 mph /  29.8 km/h 74 % 0.0 in /  0 mm 0.0 W/m2 CLR
02:14 7.8 °F /  -13.4 °C 3.4 °F /  -15.9 °C 1014.1 in /  34337.4 hPa NW 18.5 mph /  29.8 km/h 18.5 mph /  29.8 km/h 74 % 0.0 in /  0 mm 0.0 W/m2 CLR
02:19 8.3 °F /  -13.2 °C 3.9 °F /  -15.6 °C 1014.1 in /  34337.4 hPa NW 18.5 mph /  29.8 km/h 18.5 mph /  29.8 km/h 74 % 0.0 in /  0 mm 0.0 W/m2 CLR
02:24 8.3 °F /  -13.2 °C 3.9 °F /  -15.6 °C 1013.8 in /  34327.3 hPa WNW 37.0 mph /  59.5 km/h 37.0 mph /  59.5 km/h 74 % 0.0 in /  0 mm 0.0 W/m2 CLR
02:29 8.3 °F /  -13.2 °C 3.9 °F /  -15.6 °C 1013.8 in /  34327.3 hPa WNW 25.9 mph /  41.7 km/h 25.9 mph /  41.7 km/h 74 % 0.0 in /  0 mm 0.0 W/m2 CLR
02:34 8.3 °F /  -13.2 °C 3.9 °F /  -15.6 °C 1013.8 in /  34327.3 hPa WNW 24.1 mph /  38.8 km/h 24.1 mph /  38.8 km/h 74 % 0.0 in /  0 mm 0.0 W/m2 CLR
02:39 8.3 °F /  -13.2 °C 3.9 °F /  -15.6 °C 1013.8 in /  34327.3 hPa NW 24.1 mph /  38.8 km/h 24.1 mph /  38.8 km/h 74 % 0.0 in /  0 mm 0.0 W/m2 CLR
02:44 8.3 °F /  -13.2 °C 4.2 °F /  -15.4 °C 1013.8 in /  34327.3 hPa NNW 29.6 mph /  47.6 km/h 29.6 mph /  47.6 km/h 75 % 0.0 in /  0 mm 0.0 W/m2 CLR
02:49 8.3 °F /  -13.2 °C 3.9 °F /  -15.6 °C 1013.8 in /  34327.3 hPa NW 20.4 mph /  32.8 km/h 20.4 mph /  32.8 km/h 74 % 0.0 in /  0 mm 0.0 W/m2 CLR
02:54 8.3 °F /  -13.2 °C 3.9 °F /  -15.6 °C 1013.8 in /  34327.3 hPa NW 18.5 mph /  29.8 km/h 18.5 mph /  29.8 km/h 74 % 0.0 in /  0 mm 0.0 W/m2 CLR
02:59 8.3 °F /  -13.2 °C 3.9 °F /  -15.6 °C 1013.4 in /  34313.7 hPa WNW 24.1 mph /  38.8 km/h 24.1 mph /  38.8 km/h 74 % 0.0 in /  0 mm 0.0 W/m2 CLR
03:04 8.3 °F /  -13.2 °C 3.9 °F /  -15.6 °C 1013.4 in /  34313.7 hPa NW 24.1 mph /  38.8 km/h 24.1 mph /  38.8 km/h 74 % 0.0 in /  0 mm 0.0 W/m2 CLR
03:09 8.3 °F /  -13.2 °C 4.2 °F /  -15.4 °C 1013.1 in /  34303.6 hPa WNW 20.4 mph /  32.8 km/h 20.4 mph /  32.8 km/h 75 % 0.0 in /  0 mm 0.0 W/m2 CLR
03:14 8.3 °F /  -13.2 °C 4.2 °F /  -15.4 °C 1013.1 in /  34303.6 hPa NW 20.4 mph /  32.8 km/h 20.4 mph /  32.8 km/h 75 % 0.0 in /  0 mm 0.0 W/m2 CLR
03:19 8.3 °F /  -13.2 °C 4.2 °F /  -15.4 °C 1013.1 in /  34303.6 hPa NW 18.5 mph /  29.8 km/h 18.5 mph /  29.8 km/h 75 % 0.0 in /  0 mm 0.0 W/m2 CLR
03:24 8.3 °F /  -13.2 °C 4.2 °F /  -15.4 °C 1013.1 in /  34303.6 hPa WNW 19.3 mph /  31.1 km/h 19.3 mph /  31.1 km/h 75 % 0.0 in /  0 mm 0.0 W/m2 CLR
03:29 8.3 °F /  -13.2 °C 4.2 °F /  -15.4 °C 1012.8 in /  34293.4 hPa NW 18.5 mph /  29.8 km/h 18.5 mph /  29.8 km/h 75 % 0.0 in /  0 mm 0.0 W/m2 CLR
03:34 8.3 °F /  -13.2 °C 4.2 °F /  -15.4 °C 1012.8 in /  34293.4 hPa WNW 24.1 mph /  38.8 km/h 24.1 mph /  38.8 km/h 75 % 0.0 in /  0 mm 0.0 W/m2 CLR
03:39 8.3 °F /  -13.2 °C 4.2 °F /  -15.4 °C 1012.8 in /  34293.4 hPa WNW 22.5 mph /  36.2 km/h 22.5 mph /  36.2 km/h 75 % 0.0 in /  0 mm 0.0 W/m2 CLR
03:44 8.3 °F /  -13.2 °C 4.2 °F /  -15.4 °C 1012.8 in /  34293.4 hPa NW 24.1 mph /  38.8 km/h 24.1 mph /  38.8 km/h 75 % 0.0 in /  0 mm 0.0 W/m2 CLR
03:49 8.3 °F /  -13.2 °C 4.2 °F /  -15.4 °C 1012.4 in /  34279.9 hPa NW 25.7 mph /  41.4 km/h 25.7 mph /  41.4 km/h 75 % 0.0 in /  0 mm 0.0 W/m2 CLR
03:54 8.3 °F /  -13.2 °C 4.2 °F /  -15.4 °C 1012.4 in /  34279.9 hPa NNW 33.3 mph /  53.6 km/h 33.3 mph /  53.6 km/h 75 % 0.0 in /  0 mm 0.0 W/m2 CLR
03:59 8.3 °F /  -13.2 °C 4.2 °F /  -15.4 °C 1012.4 in /  34279.9 hPa NNW 27.8 mph /  44.7 km/h 27.8 mph /  44.7 km/h 75 % 0.0 in /  0 mm 0.0 W/m2 CLR
04:04 8.3 °F /  -13.2 °C 4.2 °F /  -15.4 °C 1012.4 in /  34279.9 hPa NW 33.3 mph /  53.6 km/h 33.3 mph /  53.6 km/h 75 % 0.0 in /  0 mm 0.0 W/m2 CLR
04:09 8.3 °F /  -13.2 °C 4.2 °F /  -15.4 °C 1012.4 in /  34279.9 hPa NNW 27.8 mph /  44.7 km/h 27.8 mph /  44.7 km/h 75 % 0.0 in /  0 mm 0.0 W/m2 CLR
04:14 8.3 °F /  -13.2 °C 4.2 °F /  -15.4 °C 1012.4 in /  34279.9 hPa NNW 29.6 mph /  47.6 km/h 29.6 mph /  47.6 km/h 75 % 0.0 in /  0 mm 0.0 W/m2 CLR
04:19 8.3 °F /  -13.2 °C 4.2 °F /  -15.4 °C 1012.4 in /  34279.9 hPa North 31.5 mph /  50.7 km/h 31.5 mph /  50.7 km/h 75 % 0.0 in /  0 mm 0.0 W/m2 CLR
04:24 8.3 °F /  -13.2 °C 4.2 °F /  -15.4 °C 1012.4 in /  34279.9 hPa NNW 18.5 mph /  29.8 km/h 18.5 mph /  29.8 km/h 75 % 0.0 in /  0 mm 0.0 W/m2 CLR
04:29 8.3 °F /  -13.2 °C 4.2 °F /  -15.4 °C 1012.4 in /  34279.9 hPa NNW 35.2 mph /  56.6 km/h 35.2 mph /  56.6 km/h 75 % 0.0 in /  0 mm 0.0 W/m2 CLR
04:34 8.3 °F /  -13.2 °C 4.2 °F /  -15.4 °C 1012.1 in /  34269.7 hPa North 31.5 mph /  50.7 km/h 31.5 mph /  50.7 km/h 75 % 0.0 in /  0 mm 0.0 W/m2 CLR
04:39 8.3 °F /  -13.2 °C 4.2 °F /  -15.4 °C 1012.1 in /  34269.7 hPa North 29.0 mph /  46.7 km/h 29.0 mph /  46.7 km/h 75 % 0.0 in /  0 mm 0.0 W/m2 CLR
04:44 8.3 °F /  -13.2 °C 4.2 °F /  -15.4 °C 1012.1 in /  34269.7 hPa NNW 31.5 mph /  50.7 km/h 31.5 mph /  50.7 km/h 75 % 0.0 in /  0 mm 0.0 W/m2 CLR
04:49 8.3 °F /  -13.2 °C 4.2 °F /  -15.4 °C 1011.7 in /  34256.2 hPa NNW 31.5 mph /  50.7 km/h 31.5 mph /  50.7 km/h 75 % 0.0 in /  0 mm 0.0 W/m2 CLR
04:54 8.3 °F /  -13.2 °C 3.9 °F /  -15.6 °C 1012.1 in /  34269.7 hPa NNW 31.5 mph /  50.7 km/h 31.5 mph /  50.7 km/h 74 % 0.0 in /  0 mm 0.0 W/m2 CLR
04:59 8.3 °F /  -13.2 °C 3.9 °F /  -15.6 °C 1012.1 in /  34269.7 hPa NW 27.8 mph /  44.7 km/h 27.8 mph /  44.7 km/h 74 % 0.0 in /  0 mm 0.0 W/m2 CLR
05:04 8.3 °F /  -13.2 °C 4.2 °F /  -15.4 °C 1012.1 in /  34269.7 hPa NW 29.6 mph /  47.6 km/h 29.6 mph /  47.6 km/h 75 % 0.0 in /  0 mm 0.0 W/m2 CLR
05:09 8.3 °F /  -13.2 °C 4.2 °F /  -15.4 °C 1012.1 in /  34269.7 hPa NW 29.6 mph /  47.6 km/h 29.6 mph /  47.6 km/h 75 % 0.0 in /  0 mm 0.0 W/m2 CLR
05:14 8.3 °F /  -13.2 °C 4.2 °F /  -15.4 °C 1012.1 in /  34269.7 hPa North 22.2 mph /  35.7 km/h 22.2 mph /  35.7 km/h 75 % 0.0 in /  0 mm 0.0 W/m2 CLR
05:19 8.3 °F /  -13.2 °C 4.2 °F /  -15.4 °C 1012.1 in /  34269.7 hPa NW 18.5 mph /  29.8 km/h 18.5 mph /  29.8 km/h 75 % 0.0 in /  0 mm 0.0 W/m2 CLR
05:24 8.3 °F /  -13.2 °C 4.2 °F /  -15.4 °C 1012.1 in /  34269.7 hPa NNW 35.4 mph /  57 km/h 35.4 mph /  57 km/h 75 % 0.0 in /  0 mm 0.0 W/m2 CLR
05:29 8.3 °F /  -13.2 °C 4.2 °F /  -15.4 °C 1011.7 in /  34256.2 hPa North 31.5 mph /  50.7 km/h 31.5 mph /  50.7 km/h 75 % 0.0 in /  0 mm 0.0 W/m2 CLR
05:34 8.3 °F /  -13.2 °C 4.2 °F /  -15.4 °C 1011.7 in /  34256.2 hPa NNW 43.4 mph /  69.8 km/h 43.4 mph /  69.8 km/h 75 % 0.0 in /  0 mm 0.0 W/m2 CLR
05:39 7.8 °F /  -13.4 °C 3.6 °F /  -15.8 °C 1011.4 in /  34246 hPa NNW 50.0 mph /  80.5 km/h 50.0 mph /  80.5 km/h 75 % 0.0 in /  0 mm 0.0 W/m2 CLR
05:44 7.8 °F /  -13.4 °C 3.8 °F /  -15.7 °C 1011.4 in /  34246 hPa NNW 40.7 mph /  65.5 km/h 40.7 mph /  65.5 km/h 76 % 0.0 in /  0 mm 0.0 W/m2 CLR
05:49 7.8 °F /  -13.4 °C 3.8 °F /  -15.7 °C 1011.7 in /  34256.2 hPa NNW 48.1 mph /  77.4 km/h 48.1 mph /  77.4 km/h 76 % 0.0 in /  0 mm 0.0 W/m2 CLR
05:54 8.3 °F /  -13.2 °C 4.3 °F /  -15.4 °C 1011.7 in /  34256.2 hPa NW 29.6 mph /  47.6 km/h 29.6 mph /  47.6 km/h 76 % 0.0 in /  0 mm 0.0 W/m2 CLR
05:59 8.3 °F /  -13.2 °C 4.2 °F /  -15.4 °C 1011.4 in /  34246 hPa NNW 31.5 mph /  50.7 km/h 31.5 mph /  50.7 km/h 75 % 0.0 in /  0 mm 0.0 W/m2 CLR
06:04 8.3 °F /  -13.2 °C 4.2 °F /  -15.4 °C 1011.4 in /  34246 hPa WNW 22.2 mph /  35.7 km/h 22.2 mph /  35.7 km/h 75 % 0.0 in /  0 mm 0.0 W/m2 CLR
06:09 8.3 °F /  -13.2 °C 4.2 °F /  -15.4 °C 1011.4 in /  34246 hPa NNW 33.3 mph /  53.6 km/h 33.3 mph /  53.6 km/h 75 % 0.0 in /  0 mm 0.0 W/m2 CLR
06:14 8.3 °F /  -13.2 °C 4.2 °F /  -15.4 °C 1011.4 in /  34246 hPa North 33.3 mph /  53.6 km/h 33.3 mph /  53.6 km/h 75 % 0.0 in /  0 mm 0.0 W/m2 CLR
06:19 8.3 °F /  -13.2 °C 4.3 °F /  -15.4 °C 1011.4 in /  34246 hPa NNW 38.9 mph /  62.6 km/h 38.9 mph /  62.6 km/h 76 % 0.0 in /  0 mm 0.0 W/m2 CLR
06:24 8.3 °F /  -13.2 °C 4.3 °F /  -15.4 °C 1011.4 in /  34246 hPa NNW 27.4 mph /  44.1 km/h 27.4 mph /  44.1 km/h 76 % 0.0 in /  0 mm 0.0 W/m2 CLR
06:29 8.3 °F /  -13.2 °C 4.3 °F /  -15.4 °C 1011.1 in /  34235.8 hPa North 29.0 mph /  46.7 km/h 29.0 mph /  46.7 km/h 76 % 0.0 in /  0 mm 0.0 W/m2 CLR
06:34 7.8 °F /  -13.4 °C 3.8 °F /  -15.7 °C 1011.1 in /  34235.8 hPa North 33.3 mph /  53.6 km/h 33.3 mph /  53.6 km/h 76 % 0.0 in /  0 mm 0.0 W/m2 CLR
06:39 7.8 °F /  -13.4 °C 3.8 °F /  -15.7 °C 1011.1 in /  34235.8 hPa NNW 31.5 mph /  50.7 km/h 31.5 mph /  50.7 km/h 76 % 0.0 in /  0 mm 0.0 W/m2 CLR
06:44 7.8 °F /  -13.4 °C 3.8 °F /  -15.7 °C 1011.1 in /  34235.8 hPa NW 31.5 mph /  50.7 km/h 31.5 mph /  50.7 km/h 76 % 0.0 in /  0 mm 0.0 W/m2 CLR
06:49 7.8 °F /  -13.4 °C 4.0 °F /  -15.6 °C 1011.1 in /  34235.8 hPa NNW 38.9 mph /  62.6 km/h 38.9 mph /  62.6 km/h 77 % 0.0 in /  0 mm 0.0 W/m2 CLR
06:54 7.2 °F /  -13.8 °C 3.4 °F /  -15.9 °C 1011.1 in /  34235.8 hPa NNW 25.9 mph /  41.7 km/h 25.9 mph /  41.7 km/h 77 % 0.0 in /  0 mm 0.0 W/m2 CLR
06:59 7.2 °F /  -13.8 °C 3.4 °F /  -15.9 °C 1011.1 in /  34235.8 hPa NNW 29.6 mph /  47.6 km/h 29.6 mph /  47.6 km/h 77 % 0.0 in /  0 mm 0.0 W/m2 CLR
07:04 7.2 °F /  -13.8 °C 3.7 °F /  -15.7 °C 1011.1 in /  34235.8 hPa NNW 25.9 mph /  41.7 km/h 25.9 mph /  41.7 km/h 78 % 0.0 in /  0 mm 0.0 W/m2 CLR
07:09 7.2 °F /  -13.8 °C 3.7 °F /  -15.7 °C 1011.1 in /  34235.8 hPa North 27.8 mph /  44.7 km/h 27.8 mph /  44.7 km/h 78 % 0.0 in /  0 mm 0.0 W/m2 CLR
07:14 6.7 °F /  -14.1 °C 2.9 °F /  -16.2 °C 1011.1 in /  34235.8 hPa NNW 40.2 mph /  64.7 km/h 40.2 mph /  64.7 km/h 77 % 0.0 in /  0 mm 0.0 W/m2 CLR
07:19 7.2 °F /  -13.8 °C 3.4 °F /  -15.9 °C 1011.1 in /  34235.8 hPa NNW 33.3 mph /  53.6 km/h 33.3 mph /  53.6 km/h 77 % 0.0 in /  0 mm 0.0 W/m2 CLR
07:24 7.2 °F /  -13.8 °C 3.1 °F /  -16.1 °C 1011.1 in /  34235.8 hPa North 38.9 mph /  62.6 km/h 38.9 mph /  62.6 km/h 75 % 0.0 in /  0 mm 0.0 W/m2 CLR
07:29 6.7 °F /  -14.1 °C 2.3 °F /  -16.5 °C 1011.4 in /  34246 hPa North 48.1 mph /  77.4 km/h 48.1 mph /  77.4 km/h 74 % 0.0 in /  0 mm 0.0 W/m2 CLR
07:35 6.7 °F /  -14.1 °C 2.3 °F /  -16.5 °C 1011.1 in /  34235.8 hPa North 42.6 mph /  68.6 km/h 42.6 mph /  68.6 km/h 74 % 0.0 in /  0 mm 0.0 W/m2 CLR
07:40 6.7 °F /  -14.1 °C 2.6 °F /  -16.3 °C 1011.4 in /  34246 hPa North 38.6 mph /  62.1 km/h 38.6 mph /  62.1 km/h 75 % 0.0 in /  0 mm 0.0 W/m2 OVC
07:45 6.7 °F /  -14.1 °C 2.6 °F /  -16.3 °C 1011.4 in /  34246 hPa North 46.3 mph /  74.5 km/h 46.3 mph /  74.5 km/h 75 % 0.0 in /  0 mm 0.0 W/m2 OVC
07:50 6.7 °F /  -14.1 °C 2.7 °F /  -16.3 °C 1011.1 in /  34235.8 hPa North 33.3 mph /  53.6 km/h 33.3 mph /  53.6 km/h 76 % 0.0 in /  0 mm 5.0 W/m2 OVC
07:55 6.7 °F /  -14.1 °C 2.6 °F /  -16.3 °C 1011.1 in /  34235.8 hPa North 48.1 mph /  77.4 km/h 48.1 mph /  77.4 km/h 75 % 0.0 in /  0 mm 7.0 W/m2 OVC
08:00 6.7 °F /  -14.1 °C 2.6 °F /  -16.3 °C 1011.1 in /  34235.8 hPa NNW 44.4 mph /  71.5 km/h 44.4 mph /  71.5 km/h 75 % 0.0 in /  0 mm 9.0 W/m2 BKN
08:05 6.1 °F /  -14.4 °C 2.0 °F /  -16.7 °C 1011.4 in /  34246 hPa NNW 48.1 mph /  77.4 km/h 48.1 mph /  77.4 km/h 75 % 0.0 in /  0 mm 12.0 W/m2 BKN
08:10 6.1 °F /  -14.4 °C 2.0 °F /  -16.7 °C 1011.4 in /  34246 hPa NNW 42.6 mph /  68.6 km/h 42.6 mph /  68.6 km/h 75 % 0.0 in /  0 mm 16.0 W/m2 BKN
08:15 6.1 °F /  -14.4 °C 2.0 °F /  -16.7 °C 1011.4 in /  34246 hPa NNW 44.4 mph /  71.5 km/h 44.4 mph /  71.5 km/h 75 % 0.0 in /  0 mm 19.0 W/m2 BKN
08:20 6.1 °F /  -14.4 °C 2.0 °F /  -16.7 °C 1011.7 in /  34256.2 hPa NNW 31.5 mph /  50.7 km/h 31.5 mph /  50.7 km/h 75 % 0.0 in /  0 mm 30.0 W/m2 BKN
08:25 6.1 °F /  -14.4 °C 2.0 °F /  -16.7 °C 1011.4 in /  34246 hPa North 40.7 mph /  65.5 km/h 40.7 mph /  65.5 km/h 75 % 0.0 in /  0 mm 30.0 W/m2 BKN
08:30 6.1 °F /  -14.4 °C 2.2 °F /  -16.6 °C 1011.4 in /  34246 hPa NNW 29.6 mph /  47.6 km/h 29.6 mph /  47.6 km/h 76 % 0.0 in /  0 mm 26.0 W/m2 BKN
08:35 6.1 °F /  -14.4 °C 2.2 °F /  -16.6 °C 1011.4 in /  34246 hPa NW 25.9 mph /  41.7 km/h 25.9 mph /  41.7 km/h 76 % 0.0 in /  0 mm 35.0 W/m2 SCT
08:40 6.1 °F /  -14.4 °C 2.2 °F /  -16.6 °C 1011.7 in /  34256.2 hPa NNW 29.0 mph /  46.7 km/h 29.0 mph /  46.7 km/h 76 % 0.0 in /  0 mm 32.0 W/m2 BKN
08:45 5.6 °F /  -14.7 °C 1.4 °F /  -17 °C 1011.4 in /  34246 hPa NW 31.5 mph /  50.7 km/h 31.5 mph /  50.7 km/h 75 % 0.0 in /  0 mm 37.0 W/m2 BKN
08:50 5.6 °F /  -14.7 °C 1.4 °F /  -17 °C 1011.7 in /  34256.2 hPa NNW 31.5 mph /  50.7 km/h 31.5 mph /  50.7 km/h 75 % 0.0 in /  0 mm 100.0 W/m2 BKN
08:55 6.1 °F /  -14.4 °C 2.0 °F /  -16.7 °C 1011.4 in /  34246 hPa NW 25.9 mph /  41.7 km/h 25.9 mph /  41.7 km/h 75 % 0.0 in /  0 mm 118.0 W/m2 FEW
09:00 6.1 °F /  -14.4 °C 1.8 °F /  -16.8 °C 1011.7 in /  34256.2 hPa NW 37.0 mph /  59.5 km/h 37.0 mph /  59.5 km/h 74 % 0.0 in /  0 mm 39.0 W/m2 FEW
09:05 6.1 °F /  -14.4 °C 1.8 °F /  -16.8 °C 1011.7 in /  34256.2 hPa WNW 25.9 mph /  41.7 km/h 25.9 mph /  41.7 km/h 74 % 0.0 in /  0 mm 134.0 W/m2 FEW
09:10 6.1 °F /  -14.4 °C 1.6 °F /  -16.9 °C 1011.7 in /  34256.2 hPa NNW 18.5 mph /  29.8 km/h 18.5 mph /  29.8 km/h 73 % 0.0 in /  0 mm 123.0 W/m2 CLR
09:15 6.1 °F /  -14.4 °C 1.4 °F /  -17 °C 1011.4 in /  34246 hPa NW 25.9 mph /  41.7 km/h 25.9 mph /  41.7 km/h 72 % 0.0 in /  0 mm 116.0 W/m2 CLR
09:20 6.1 °F /  -14.4 °C 1.2 °F /  -17.1 °C 1011.4 in /  34246 hPa NNW 32.2 mph /  51.8 km/h 32.2 mph /  51.8 km/h 71 % 0.0 in /  0 mm 221.0 W/m2 CLR
09:25 6.7 °F /  -14.1 °C 1.8 °F /  -16.8 °C 1011.4 in /  34246 hPa NW 32.2 mph /  51.8 km/h 32.2 mph /  51.8 km/h 71 % 0.0 in /  0 mm 237.0 W/m2 CLR
09:30 6.7 °F /  -14.1 °C 1.8 °F /  -16.8 °C 1011.4 in /  34246 hPa NNW 32.2 mph /  51.8 km/h 32.2 mph /  51.8 km/h 71 % 0.0 in /  0 mm 253.0 W/m2 CLR
09:35 6.7 °F /  -14.1 °C 1.6 °F /  -16.9 °C 1011.7 in /  34256.2 hPa NNW 46.3 mph /  74.5 km/h 46.3 mph /  74.5 km/h 70 % 0.0 in /  0 mm 272.0 W/m2 CLR
09:40 6.7 °F /  -14.1 °C 1.6 °F /  -16.9 °C 1011.7 in /  34256.2 hPa NNW 37.0 mph /  59.5 km/h 37.0 mph /  59.5 km/h 70 % 0.0 in /  0 mm 287.0 W/m2 CLR
09:45 6.7 °F /  -14.1 °C 1.6 °F /  -16.9 °C 1011.7 in /  34256.2 hPa NNW 31.5 mph /  50.7 km/h 31.5 mph /  50.7 km/h 70 % 0.0 in /  0 mm 302.0 W/m2 CLR
09:50 6.7 °F /  -14.1 °C 1.4 °F /  -17 °C 1011.7 in /  34256.2 hPa North 31.5 mph /  50.7 km/h 31.5 mph /  50.7 km/h 69 % 0.0 in /  0 mm 316.0 W/m2 CLR
09:55 6.7 °F /  -14.1 °C 1.2 °F /  -17.1 °C 1011.7 in /  34256.2 hPa NW 27.8 mph /  44.7 km/h 27.8 mph /  44.7 km/h 68 % 0.0 in /  0 mm 334.0 W/m2 CLR
10:00 7.2 °F /  -13.8 °C 1.5 °F /  -16.9 °C 1011.7 in /  34256.2 hPa NNW 40.7 mph /  65.5 km/h 40.7 mph /  65.5 km/h 67 % 0.0 in /  0 mm 346.0 W/m2 CLR
10:05 7.2 °F /  -13.8 °C 1.5 °F /  -16.9 °C 1011.7 in /  34256.2 hPa NNW 31.5 mph /  50.7 km/h 31.5 mph /  50.7 km/h 67 % 0.0 in /  0 mm 360.0 W/m2 CLR
10:10 7.2 °F /  -13.8 °C 1.3 °F /  -17.1 °C 1011.7 in /  34256.2 hPa NW 29.6 mph /  47.6 km/h 29.6 mph /  47.6 km/h 66 % 0.0 in /  0 mm 373.0 W/m2 CLR
10:15 7.8 °F /  -13.4 °C 1.8 °F /  -16.8 °C 1011.7 in /  34256.2 hPa NNW 31.5 mph /  50.7 km/h 31.5 mph /  50.7 km/h 66 % 0.0 in /  0 mm 387.0 W/m2 CLR
10:20 7.8 °F /  -13.4 °C 1.6 °F /  -16.9 °C 1011.7 in /  34256.2 hPa NW 38.9 mph /  62.6 km/h 38.9 mph /  62.6 km/h 65 % 0.0 in /  0 mm 399.0 W/m2 CLR
10:25 7.8 °F /  -13.4 °C 1.6 °F /  -16.9 °C 1011.4 in /  34246 hPa NW 25.9 mph /  41.7 km/h 25.9 mph /  41.7 km/h 65 % 0.0 in /  0 mm 410.0 W/m2 CLR
10:30 7.8 °F /  -13.4 °C 1.6 °F /  -16.9 °C 1011.7 in /  34256.2 hPa NW 25.7 mph /  41.4 km/h 25.7 mph /  41.4 km/h 65 % 0.0 in /  0 mm 424.0 W/m2 CLR
10:35 7.8 °F /  -13.4 °C 1.4 °F /  -17 °C 1011.7 in /  34256.2 hPa North 27.8 mph /  44.7 km/h 27.8 mph /  44.7 km/h 64 % 0.0 in /  0 mm 438.0 W/m2 CLR
10:40 8.3 °F /  -13.2 °C 1.9 °F /  -16.7 °C 1011.4 in /  34246 hPa NW 33.3 mph /  53.6 km/h 33.3 mph /  53.6 km/h 64 % 0.0 in /  0 mm 450.0 W/m2 CLR
10:45 8.3 °F /  -13.2 °C 1.9 °F /  -16.7 °C 1011.7 in /  34256.2 hPa NNW 29.6 mph /  47.6 km/h 29.6 mph /  47.6 km/h 64 % 0.0 in /  0 mm 462.0 W/m2 CLR
10:50 8.3 °F /  -13.2 °C 1.7 °F /  -16.8 °C 1011.4 in /  34246 hPa NNW 31.5 mph /  50.7 km/h 31.5 mph /  50.7 km/h 63 % 0.0 in /  0 mm 473.0 W/m2 CLR
10:55 8.9 °F /  -12.8 °C 2.0 °F /  -16.7 °C 1011.7 in /  34256.2 hPa NW 31.5 mph /  50.7 km/h 31.5 mph /  50.7 km/h 62 % 0.0 in /  0 mm 489.0 W/m2 CLR
11:00 8.9 °F /  -12.8 °C 2.0 °F /  -16.7 °C 1011.7 in /  34256.2 hPa NNW 29.6 mph /  47.6 km/h 29.6 mph /  47.6 km/h 62 % 0.0 in /  0 mm 499.0 W/m2 CLR
11:05 8.9 °F /  -12.8 °C 2.0 °F /  -16.7 °C 1011.7 in /  34256.2 hPa NW 31.5 mph /  50.7 km/h 31.5 mph /  50.7 km/h 62 % 0.0 in /  0 mm 506.0 W/m2 CLR
11:10 9.4 °F /  -12.6 °C 2.5 °F /  -16.4 °C 1011.7 in /  34256.2 hPa NNW 37.0 mph /  59.5 km/h 37.0 mph /  59.5 km/h 62 % 0.0 in /  0 mm 515.0 W/m2 CLR
11:15 9.4 °F /  -12.6 °C 2.3 °F /  -16.5 °C 1012.1 in /  34269.7 hPa NNW 42.6 mph /  68.6 km/h 42.6 mph /  68.6 km/h 61 % 0.0 in /  0 mm 527.0 W/m2 CLR
11:20 10.0 °F /  -12.2 °C 3.1 °F /  -16.1 °C 1011.7 in /  34256.2 hPa North 25.9 mph /  41.7 km/h 25.9 mph /  41.7 km/h 62 % 0.0 in /  0 mm 538.0 W/m2 CLR
11:25 10.0 °F /  -12.2 °C 2.6 °F /  -16.3 °C 1011.7 in /  34256.2 hPa NNW 24.1 mph /  38.8 km/h 24.1 mph /  38.8 km/h 60 % 0.0 in /  0 mm 547.0 W/m2 CLR
11:30 10.0 °F /  -12.2 °C 2.3 °F /  -16.5 °C 1011.7 in /  34256.2 hPa NW 31.5 mph /  50.7 km/h 31.5 mph /  50.7 km/h 59 % 0.0 in /  0 mm 555.0 W/m2 CLR
11:35 10.0 °F /  -12.2 °C 2.3 °F /  -16.5 °C 1011.7 in /  34256.2 hPa NW 33.3 mph /  53.6 km/h 33.3 mph /  53.6 km/h 59 % 0.0 in /  0 mm 561.0 W/m2 CLR
11:40 10.0 °F /  -12.2 °C 2.3 °F /  -16.5 °C 1011.7 in /  34256.2 hPa NW 22.2 mph /  35.7 km/h 22.2 mph /  35.7 km/h 59 % 0.0 in /  0 mm 573.0 W/m2 CLR
11:45 10.0 °F /  -12.2 °C 2.1 °F /  -16.6 °C 1011.7 in /  34256.2 hPa NW 27.4 mph /  44.1 km/h 27.4 mph /  44.1 km/h 58 % 0.0 in /  0 mm 580.0 W/m2 CLR
11:50 10.6 °F /  -11.9 °C 2.6 °F /  -16.3 °C 1011.7 in /  34256.2 hPa NW 31.5 mph /  50.7 km/h 31.5 mph /  50.7 km/h 58 % 0.0 in /  0 mm 585.0 W/m2 CLR
11:55 10.6 °F /  -11.9 °C 2.6 °F /  -16.3 °C 1011.7 in /  34256.2 hPa North 25.9 mph /  41.7 km/h 25.9 mph /  41.7 km/h 58 % 0.0 in /  0 mm 591.0 W/m2 CLR
12:00 10.6 °F /  -11.9 °C 2.6 °F /  -16.3 °C 1011.7 in /  34256.2 hPa North 31.5 mph /  50.7 km/h 31.5 mph /  50.7 km/h 58 % 0.0 in /  0 mm 598.0 W/m2 CLR
12:05 10.6 °F /  -11.9 °C 2.4 °F /  -16.4 °C 1011.7 in /  34256.2 hPa NW 25.7 mph /  41.4 km/h 25.7 mph /  41.4 km/h 57 % 0.0 in /  0 mm 606.0 W/m2 CLR
12:10 10.6 °F /  -11.9 °C 2.4 °F /  -16.4 °C 1011.4 in /  34246 hPa NNW 25.9 mph /  41.7 km/h 25.9 mph /  41.7 km/h 57 % 0.0 in /  0 mm 613.0 W/m2 CLR
12:15 10.6 °F /  -11.9 °C 2.4 °F /  -16.4 °C 1011.4 in /  34246 hPa NW 29.0 mph /  46.7 km/h 29.0 mph /  46.7 km/h 57 % 0.0 in /  0 mm 615.0 W/m2 CLR
12:20 11.1 °F /  -11.6 °C 2.7 °F /  -16.3 °C 1011.4 in /  34246 hPa North 33.3 mph /  53.6 km/h 33.3 mph /  53.6 km/h 56 % 0.0 in /  0 mm 621.0 W/m2 CLR
12:25 11.1 °F /  -11.6 °C 2.7 °F /  -16.3 °C 1011.4 in /  34246 hPa NNW 29.6 mph /  47.6 km/h 29.6 mph /  47.6 km/h 56 % 0.0 in /  0 mm 624.0 W/m2 CLR
12:30 11.1 °F /  -11.6 °C 2.4 °F /  -16.4 °C 1011.4 in /  34246 hPa NNW 38.9 mph /  62.6 km/h 38.9 mph /  62.6 km/h 55 % 0.0 in /  0 mm 631.0 W/m2 CLR
12:35 11.7 °F /  -11.3 °C 2.9 °F /  -16.2 °C 1011.4 in /  34246 hPa NNW 33.3 mph /  53.6 km/h 33.3 mph /  53.6 km/h 55 % 0.0 in /  0 mm 631.0 W/m2 CLR
12:40 11.7 °F /  -11.3 °C 2.7 °F /  -16.3 °C 1011.4 in /  34246 hPa NNW 33.3 mph /  53.6 km/h 33.3 mph /  53.6 km/h 54 % 0.0 in /  0 mm 638.0 W/m2 CLR
12:45 11.7 °F /  -11.3 °C 2.7 °F /  -16.3 °C 1011.1 in /  34235.8 hPa NNW 31.5 mph /  50.7 km/h 31.5 mph /  50.7 km/h 54 % 0.0 in /  0 mm 643.0 W/m2 CLR
12:50 11.7 °F /  -11.3 °C 2.7 °F /  -16.3 °C 1011.1 in /  34235.8 hPa NW 29.6 mph /  47.6 km/h 29.6 mph /  47.6 km/h 54 % 0.0 in /  0 mm 647.0 W/m2 CLR
12:55 12.2 °F /  -11 °C 2.9 °F /  -16.2 °C 1011.1 in /  34235.8 hPa NW 29.6 mph /  47.6 km/h 29.6 mph /  47.6 km/h 53 % 0.0 in /  0 mm 575.0 W/m2 CLR
13:00 12.2 °F /  -11 °C 3.2 °F /  -16 °C 1011.1 in /  34235.8 hPa NW 31.5 mph /  50.7 km/h 31.5 mph /  50.7 km/h 54 % 0.0 in /  0 mm 650.0 W/m2 CLR
13:05 12.2 °F /  -11 °C 3.2 °F /  -16 °C 1011.1 in /  34235.8 hPa WNW 27.8 mph /  44.7 km/h 27.8 mph /  44.7 km/h 54 % 0.0 in /  0 mm 659.0 W/m2 CLR
13:10 12.2 °F /  -11 °C 2.9 °F /  -16.2 °C 1011.1 in /  34235.8 hPa NNW 29.6 mph /  47.6 km/h 29.6 mph /  47.6 km/h 53 % 0.0 in /  0 mm 675.0 W/m2 CLR
13:15 12.8 °F /  -10.7 °C 2.9 °F /  -16.2 °C 1011.1 in /  34235.8 hPa NNW 24.1 mph /  38.8 km/h 24.1 mph /  38.8 km/h 51 % 0.0 in /  0 mm 671.0 W/m2 CLR
13:20 12.8 °F /  -10.7 °C 3.2 °F /  -16 °C 1010.7 in /  34222.3 hPa NW 18.5 mph /  29.8 km/h 18.5 mph /  29.8 km/h 52 % 0.0 in /  0 mm 675.0 W/m2 CLR
13:25 12.8 °F /  -10.7 °C 2.9 °F /  -16.2 °C 1010.7 in /  34222.3 hPa North 32.2 mph /  51.8 km/h 32.2 mph /  51.8 km/h 51 % 0.0 in /  0 mm 670.0 W/m2 CLR
13:30 12.8 °F /  -10.7 °C 2.9 °F /  -16.2 °C 1010.7 in /  34222.3 hPa NNW 25.9 mph /  41.7 km/h 25.9 mph /  41.7 km/h 51 % 0.0 in /  0 mm 661.0 W/m2 CLR
13:35 12.8 °F /  -10.7 °C 2.9 °F /  -16.2 °C 1010.7 in /  34222.3 hPa North 33.3 mph /  53.6 km/h 33.3 mph /  53.6 km/h 51 % 0.0 in /  0 mm 682.0 W/m2 CLR
13:40 12.8 °F /  -10.7 °C 2.3 °F /  -16.5 °C 1010.7 in /  34222.3 hPa NW 31.5 mph /  50.7 km/h 31.5 mph /  50.7 km/h 49 % 0.0 in /  0 mm 708.0 W/m2 CLR
13:45 13.3 °F /  -10.4 °C 2.8 °F /  -16.2 °C 1010.7 in /  34222.3 hPa NNW 35.2 mph /  56.6 km/h 35.2 mph /  56.6 km/h 49 % 0.0 in /  0 mm 619.0 W/m2 CLR
13:50 12.8 °F /  -10.7 °C 2.3 °F /  -16.5 °C 1010.7 in /  34222.3 hPa North 27.8 mph /  44.7 km/h 27.8 mph /  44.7 km/h 49 % 0.0 in /  0 mm 666.0 W/m2 CLR
13:55 13.3 °F /  -10.4 °C 2.8 °F /  -16.2 °C 1010.4 in /  34212.1 hPa NNW 31.5 mph /  50.7 km/h 31.5 mph /  50.7 km/h 49 % 0.0 in /  0 mm 643.0 W/m2 CLR
14:00 13.3 °F /  -10.4 °C 2.2 °F /  -16.6 °C 1010.4 in /  34212.1 hPa NNW 27.8 mph /  44.7 km/h 27.8 mph /  44.7 km/h 47 % 0.0 in /  0 mm 624.0 W/m2 CLR
14:05 13.3 °F /  -10.4 °C 2.6 °F /  -16.3 °C 1010.4 in /  34212.1 hPa North 33.8 mph /  54.4 km/h 33.8 mph /  54.4 km/h 48 % 0.0 in /  0 mm 631.0 W/m2 CLR
14:10 13.3 °F /  -10.4 °C 2.2 °F /  -16.6 °C 1010.0 in /  34198.6 hPa North 25.7 mph /  41.4 km/h 25.7 mph /  41.4 km/h 47 % 0.0 in /  0 mm 596.0 W/m2 CLR
14:15 13.9 °F /  -10.1 °C 2.8 °F /  -16.2 °C 1010.0 in /  34198.6 hPa NNW 25.9 mph /  41.7 km/h 25.9 mph /  41.7 km/h 47 % 0.0 in /  0 mm 642.0 W/m2 CLR
14:20 13.3 °F /  -10.4 °C 2.2 °F /  -16.6 °C 1010.0 in /  34198.6 hPa NNW 30.6 mph /  49.2 km/h 30.6 mph /  49.2 km/h 47 % 0.0 in /  0 mm 650.0 W/m2 CLR
14:25 13.9 °F /  -10.1 °C 2.4 °F /  -16.4 °C 1010.0 in /  34198.6 hPa NW 31.5 mph /  50.7 km/h 31.5 mph /  50.7 km/h 46 % 0.0 in /  0 mm 612.0 W/m2 CLR
14:30 13.3 °F /  -10.4 °C 1.9 °F /  -16.7 °C 1010.0 in /  34198.6 hPa NW 27.8 mph /  44.7 km/h 27.8 mph /  44.7 km/h 46 % 0.0 in /  0 mm 596.0 W/m2 CLR
14:35 13.3 °F /  -10.4 °C 1.9 °F /  -16.7 °C 1009.7 in /  34188.4 hPa NNW 22.5 mph /  36.2 km/h 22.5 mph /  36.2 km/h 46 % 0.0 in /  0 mm 617.0 W/m2 CLR
14:41 13.9 °F /  -10.1 °C 3.1 °F /  -16.1 °C 1009.7 in /  34188.4 hPa NW 25.9 mph /  41.7 km/h 25.9 mph /  41.7 km/h 48 % 0.0 in /  0 mm 601.0 W/m2 CLR
14:46 13.9 °F /  -10.1 °C 1.8 °F /  -16.8 °C 1009.7 in /  34188.4 hPa North 33.3 mph /  53.6 km/h 33.3 mph /  53.6 km/h 44 % 0.0 in /  0 mm 617.0 W/m2 CLR
14:51 13.3 °F /  -10.4 °C 1.6 °F /  -16.9 °C 1009.4 in /  34178.3 hPa North 35.2 mph /  56.6 km/h 35.2 mph /  56.6 km/h 45 % 0.0 in /  0 mm 628.0 W/m2 CLR
14:56 13.9 °F /  -10.1 °C 1.8 °F /  -16.8 °C 1009.4 in /  34178.3 hPa North 25.9 mph /  41.7 km/h 25.9 mph /  41.7 km/h 44 % 0.0 in /  0 mm 621.0 W/m2 CLR
15:01 13.3 °F /  -10.4 °C 1.3 °F /  -17.1 °C 1009.4 in /  34178.3 hPa NNW 33.8 mph /  54.4 km/h 33.8 mph /  54.4 km/h 44 % 0.0 in /  0 mm 464.0 W/m2 CLR
15:06 13.3 °F /  -10.4 °C 1.6 °F /  -16.9 °C 1009.4 in /  34178.3 hPa NNW 29.6 mph /  47.6 km/h 29.6 mph /  47.6 km/h 45 % 0.0 in /  0 mm 473.0 W/m2 CLR
15:11 13.3 °F /  -10.4 °C 1.6 °F /  -16.9 °C 1009.4 in /  34178.3 hPa NW 24.1 mph /  38.8 km/h 24.1 mph /  38.8 km/h 45 % 0.0 in /  0 mm 383.0 W/m2 CLR
15:16 13.3 °F /  -10.4 °C 1.6 °F /  -16.9 °C 1009.4 in /  34178.3 hPa NW 33.3 mph /  53.6 km/h 33.3 mph /  53.6 km/h 45 % 0.0 in /  0 mm 360.0 W/m2 CLR
15:21 13.3 °F /  -10.4 °C 2.2 °F /  -16.6 °C 1009.4 in /  34178.3 hPa NNW 38.6 mph /  62.1 km/h 38.6 mph /  62.1 km/h 47 % 0.0 in /  0 mm 357.0 W/m2 CLR
15:26 12.8 °F /  -10.7 °C 2.1 °F /  -16.6 °C 1009.4 in /  34178.3 hPa NNW 33.8 mph /  54.4 km/h 33.8 mph /  54.4 km/h 48 % 0.0 in /  0 mm 396.0 W/m2 CLR
15:31 12.2 °F /  -11 °C 1.8 °F /  -16.8 °C 1009.4 in /  34178.3 hPa NNW 30.6 mph /  49.2 km/h 30.6 mph /  49.2 km/h 49 % 0.0 in /  0 mm 404.0 W/m2 CLR
15:36 12.2 °F /  -11 °C 1.8 °F /  -16.8 °C 1009.4 in /  34178.3 hPa NW 33.3 mph /  53.6 km/h 33.3 mph /  53.6 km/h 49 % 0.0 in /  0 mm 211.0 W/m2 CLR
15:41 11.7 °F /  -11.3 °C 1.6 °F /  -16.9 °C 1009.7 in /  34188.4 hPa North 40.7 mph /  65.5 km/h 40.7 mph /  65.5 km/h 50 % 0.0 in /  0 mm 218.0 W/m2 CLR
15:46 11.7 °F /  -11.3 °C 1.6 °F /  -16.9 °C 1009.7 in /  34188.4 hPa North 44.4 mph /  71.5 km/h 44.4 mph /  71.5 km/h 50 % 0.0 in /  0 mm 244.0 W/m2 CLR
15:51 11.7 °F /  -11.3 °C 1.6 °F /  -16.9 °C 1009.7 in /  34188.4 hPa NNW 33.3 mph /  53.6 km/h 33.3 mph /  53.6 km/h 50 % 0.0 in /  0 mm 302.0 W/m2 CLR
15:56 11.7 °F /  -11.3 °C 1.6 °F /  -16.9 °C 1009.7 in /  34188.4 hPa NNW 33.8 mph /  54.4 km/h 33.8 mph /  54.4 km/h 50 % 0.0 in /  0 mm 251.0 W/m2 CLR
16:01 11.1 °F /  -11.6 °C 1.1 °F /  -17.2 °C 1009.7 in /  34188.4 hPa NNW 31.5 mph /  50.7 km/h 31.5 mph /  50.7 km/h 50 % 0.0 in /  0 mm 202.0 W/m2 CLR
16:06 11.1 °F /  -11.6 °C 0.8 °F /  -17.3 °C 1010.0 in /  34198.6 hPa NNW 38.9 mph /  62.6 km/h 38.9 mph /  62.6 km/h 49 % 0.0 in /  0 mm 200.0 W/m2 CLR
16:11 11.1 °F /  -11.6 °C 1.1 °F /  -17.2 °C 1009.7 in /  34188.4 hPa NW 35.2 mph /  56.6 km/h 35.2 mph /  56.6 km/h 50 % 0.0 in /  0 mm 218.0 W/m2 CLR
16:16 11.1 °F /  -11.6 °C 1.1 °F /  -17.2 °C 1009.7 in /  34188.4 hPa NW 31.5 mph /  50.7 km/h 31.5 mph /  50.7 km/h 50 % 0.0 in /  0 mm 223.0 W/m2 CLR
16:21 11.1 °F /  -11.6 °C 0.8 °F /  -17.3 °C 1009.7 in /  34188.4 hPa NNW 31.5 mph /  50.7 km/h 31.5 mph /  50.7 km/h 49 % 0.0 in /  0 mm 237.0 W/m2 CLR
16:26 11.1 °F /  -11.6 °C 1.1 °F /  -17.2 °C 1009.7 in /  34188.4 hPa NNW 31.5 mph /  50.7 km/h 31.5 mph /  50.7 km/h 50 % 0.0 in /  0 mm 225.0 W/m2 CLR
16:31 11.1 °F /  -11.6 °C 0.8 °F /  -17.3 °C 1009.7 in /  34188.4 hPa NW 31.5 mph /  50.7 km/h 31.5 mph /  50.7 km/h 49 % 0.0 in /  0 mm 232.0 W/m2 CLR
16:37 11.1 °F /  -11.6 °C 0.2 °F /  -17.7 °C 1009.7 in /  34188.4 hPa NNW 29.6 mph /  47.6 km/h 29.6 mph /  47.6 km/h 47 % 0.0 in /  0 mm 188.0 W/m2 CLR
16:42 11.1 °F /  -11.6 °C 0.5 °F /  -17.5 °C 1009.7 in /  34188.4 hPa NNW 31.5 mph /  50.7 km/h 31.5 mph /  50.7 km/h 48 % 0.0 in /  0 mm 209.0 W/m2 CLR
16:47 11.1 °F /  -11.6 °C 0.2 °F /  -17.7 °C 1009.7 in /  34188.4 hPa North 33.3 mph /  53.6 km/h 33.3 mph /  53.6 km/h 47 % 0.0 in /  0 mm 190.0 W/m2 CLR
16:52 11.1 °F /  -11.6 °C 0.2 °F /  -17.7 °C 1009.7 in /  34188.4 hPa NNW 29.6 mph /  47.6 km/h 29.6 mph /  47.6 km/h 47 % 0.0 in /  0 mm 141.0 W/m2 CLR
16:57 11.1 °F /  -11.6 °C 0.2 °F /  -17.7 °C 1009.7 in /  34188.4 hPa NNW 22.2 mph /  35.7 km/h 22.2 mph /  35.7 km/h 47 % 0.0 in /  0 mm 109.0 W/m2 CLR
17:02 10.6 °F /  -11.9 °C -0.3 °F /  -17.9 °C 1009.7 in /  34188.4 hPa NNW 24.1 mph /  38.8 km/h 24.1 mph /  38.8 km/h 47 % 0.0 in /  0 mm 179.0 W/m2 CLR
17:07 11.1 °F /  -11.6 °C -0.1 °F /  -17.8 °C 1009.7 in /  34188.4 hPa North 25.9 mph /  41.7 km/h 25.9 mph /  41.7 km/h 46 % 0.0 in /  0 mm 171.0 W/m2 CLR
17:12 10.6 °F /  -11.9 °C -0.9 °F /  -18.3 °C 1009.7 in /  34188.4 hPa NNW 29.6 mph /  47.6 km/h 29.6 mph /  47.6 km/h 45 % 0.0 in /  0 mm 102.0 W/m2 CLR
17:17 10.6 °F /  -11.9 °C -0.6 °F /  -18.1 °C 1009.7 in /  34188.4 hPa NW 24.1 mph /  38.8 km/h 24.1 mph /  38.8 km/h 46 % 0.0 in /  0 mm 88.0 W/m2 CLR
17:22 10.6 °F /  -11.9 °C -0.6 °F /  -18.1 °C 1009.7 in /  34188.4 hPa NW 25.9 mph /  41.7 km/h 25.9 mph /  41.7 km/h 46 % 0.0 in /  0 mm 81.0 W/m2 CLR
17:27 10.0 °F /  -12.2 °C -1.1 °F /  -18.4 °C 1009.7 in /  34188.4 hPa NNW 27.8 mph /  44.7 km/h 27.8 mph /  44.7 km/h 46 % 0.0 in /  0 mm 70.0 W/m2 FEW
17:32 10.0 °F /  -12.2 °C -1.1 °F /  -18.4 °C 1009.7 in /  34188.4 hPa NW 18.5 mph /  29.8 km/h 18.5 mph /  29.8 km/h 46 % 0.0 in /  0 mm 54.0 W/m2 FEW
17:37 10.0 °F /  -12.2 °C -1.1 °F /  -18.4 °C 1009.7 in /  34188.4 hPa NW 25.9 mph /  41.7 km/h 25.9 mph /  41.7 km/h 46 % 0.0 in /  0 mm 67.0 W/m2 SCT
17:42 9.4 °F /  -12.6 °C -1.9 °F /  -18.8 °C 1009.7 in /  34188.4 hPa NNW 25.9 mph /  41.7 km/h 25.9 mph /  41.7 km/h 45 % 0.0 in /  0 mm 53.0 W/m2 SCT
17:47 9.4 °F /  -12.6 °C -1.9 °F /  -18.8 °C 1009.7 in /  34188.4 hPa NW 24.1 mph /  38.8 km/h 24.1 mph /  38.8 km/h 45 % 0.0 in /  0 mm 49.0 W/m2 SCT
17:52 9.4 °F /  -12.6 °C -1.9 °F /  -18.8 °C 1009.7 in /  34188.4 hPa NW 22.5 mph /  36.2 km/h 22.5 mph /  36.2 km/h 45 % 0.0 in /  0 mm 81.0 W/m2 FEW
17:57 9.4 °F /  -12.6 °C -1.9 °F /  -18.8 °C 1009.7 in /  34188.4 hPa NW 18.5 mph /  29.8 km/h 18.5 mph /  29.8 km/h 45 % 0.0 in /  0 mm 62.0 W/m2 SCT
18:02 9.4 °F /  -12.6 °C -1.9 °F /  -18.8 °C 1010.0 in /  34198.6 hPa NNW 19.3 mph /  31.1 km/h 19.3 mph /  31.1 km/h 45 % 0.0 in /  0 mm 46.0 W/m2 SCT
18:07 9.4 °F /  -12.6 °C -1.9 °F /  -18.8 °C 1009.7 in /  34188.4 hPa NW 20.4 mph /  32.8 km/h 20.4 mph /  32.8 km/h 45 % 0.0 in /  0 mm 46.0 W/m2 SCT
18:12 9.4 °F /  -12.6 °C -2.2 °F /  -19 °C 1010.0 in /  34198.6 hPa NW 25.9 mph /  41.7 km/h 25.9 mph /  41.7 km/h 44 % 0.0 in /  0 mm 37.0 W/m2 BKN
18:17 8.9 °F /  -12.8 °C -2.4 °F /  -19.1 °C 1010.0 in /  34198.6 hPa NW 24.1 mph /  38.8 km/h 24.1 mph /  38.8 km/h 45 % 0.0 in /  0 mm 30.0 W/m2 BKN
18:22 8.9 °F /  -12.8 °C -2.4 °F /  -19.1 °C 1010.0 in /  34198.6 hPa NNW 31.5 mph /  50.7 km/h 31.5 mph /  50.7 km/h 45 % 0.0 in /  0 mm 25.0 W/m2 BKN
18:27 8.9 °F /  -12.8 °C -2.7 °F /  -19.3 °C 1010.0 in /  34198.6 hPa NW 31.5 mph /  50.7 km/h 31.5 mph /  50.7 km/h 44 % 0.0 in /  0 mm 18.0 W/m2 BKN
18:32 8.9 °F /  -12.8 °C -2.7 °F /  -19.3 °C 1010.0 in /  34198.6 hPa NNW 22.2 mph /  35.7 km/h 22.2 mph /  35.7 km/h 44 % 0.0 in /  0 mm 12.0 W/m2 BKN
18:37 8.9 °F /  -12.8 °C -2.4 °F /  -19.1 °C 1010.0 in /  34198.6 hPa NW 27.8 mph /  44.7 km/h 27.8 mph /  44.7 km/h 45 % 0.0 in /  0 mm 7.0 W/m2 BKN
18:42 8.9 °F /  -12.8 °C -2.4 °F /  -19.1 °C 1010.0 in /  34198.6 hPa NNW 30.6 mph /  49.2 km/h 30.6 mph /  49.2 km/h 45 % 0.0 in /  0 mm 0.0 W/m2 OVC
18:47 8.3 °F /  -13.2 °C -3.2 °F /  -19.6 °C 1010.4 in /  34212.1 hPa NNW 35.2 mph /  56.6 km/h 35.2 mph /  56.6 km/h 44 % 0.0 in /  0 mm 0.0 W/m2 OVC
18:52 8.3 °F /  -13.2 °C -3.2 °F /  -19.6 °C 1010.4 in /  34212.1 hPa NW 29.0 mph /  46.7 km/h 29.0 mph /  46.7 km/h 44 % 0.0 in /  0 mm 0.0 W/m2 CLR
18:57 8.3 °F /  -13.2 °C -3.2 °F /  -19.6 °C 1010.4 in /  34212.1 hPa NW 31.5 mph /  50.7 km/h 31.5 mph /  50.7 km/h 44 % 0.0 in /  0 mm 0.0 W/m2 CLR
19:02 8.3 °F /  -13.2 °C -3.2 °F /  -19.6 °C 1010.4 in /  34212.1 hPa North 25.7 mph /  41.4 km/h 25.7 mph /  41.4 km/h 44 % 0.0 in /  0 mm 0.0 W/m2 CLR
19:07 7.8 °F /  -13.4 °C -3.7 °F /  -19.8 °C 1010.4 in /  34212.1 hPa NW 24.1 mph /  38.8 km/h 24.1 mph /  38.8 km/h 44 % 0.0 in /  0 mm 0.0 W/m2 CLR
19:12 7.8 °F /  -13.4 °C -3.7 °F /  -19.8 °C 1010.4 in /  34212.1 hPa NW 31.5 mph /  50.7 km/h 31.5 mph /  50.7 km/h 44 % 0.0 in /  0 mm 0.0 W/m2 CLR
19:17 7.8 °F /  -13.4 °C -3.7 °F /  -19.8 °C 1010.7 in /  34222.3 hPa NW 37.0 mph /  59.5 km/h 37.0 mph /  59.5 km/h 44 % 0.0 in /  0 mm 0.0 W/m2 CLR
19:22 7.8 °F /  -13.4 °C -3.4 °F /  -19.7 °C 1010.7 in /  34222.3 hPa NW 31.5 mph /  50.7 km/h 31.5 mph /  50.7 km/h 45 % 0.0 in /  0 mm 0.0 W/m2 CLR
19:27 7.8 °F /  -13.4 °C -3.4 °F /  -19.7 °C 1010.7 in /  34222.3 hPa NW 31.5 mph /  50.7 km/h 31.5 mph /  50.7 km/h 45 % 0.0 in /  0 mm 0.0 W/m2 CLR
19:32 7.2 °F /  -13.8 °C -3.9 °F /  -19.9 °C 1010.7 in /  34222.3 hPa NW 31.5 mph /  50.7 km/h 31.5 mph /  50.7 km/h 45 % 0.0 in /  0 mm 0.0 W/m2 CLR
19:37 7.2 °F /  -13.8 °C -3.7 °F /  -19.8 °C 1010.7 in /  34222.3 hPa NW 35.2 mph /  56.6 km/h 35.2 mph /  56.6 km/h 46 % 0.0 in /  0 mm 0.0 W/m2 CLR
19:42 7.2 °F /  -13.8 °C -3.7 °F /  -19.8 °C 1010.7 in /  34222.3 hPa North 29.6 mph /  47.6 km/h 29.6 mph /  47.6 km/h 46 % 0.0 in /  0 mm 0.0 W/m2 CLR
19:47 7.2 °F /  -13.8 °C -3.7 °F /  -19.8 °C 1010.7 in /  34222.3 hPa NNW 31.5 mph /  50.7 km/h 31.5 mph /  50.7 km/h 46 % 0.0 in /  0 mm 0.0 W/m2 CLR
19:52 6.7 °F /  -14.1 °C -4.2 °F /  -20.1 °C 1011.1 in /  34235.8 hPa NNW 29.6 mph /  47.6 km/h 29.6 mph /  47.6 km/h 46 % 0.0 in /  0 mm 0.0 W/m2 CLR
19:57 6.7 °F /  -14.1 °C -3.9 °F /  -19.9 °C 1011.1 in /  34235.8 hPa NNW 31.5 mph /  50.7 km/h 31.5 mph /  50.7 km/h 47 % 0.0 in /  0 mm 0.0 W/m2 CLR
20:02 6.7 °F /  -14.1 °C -3.9 °F /  -19.9 °C 1011.1 in /  34235.8 hPa NNW 33.3 mph /  53.6 km/h 33.3 mph /  53.6 km/h 47 % 0.0 in /  0 mm 0.0 W/m2 CLR
20:07 6.7 °F /  -14.1 °C -3.9 °F /  -19.9 °C 1011.1 in /  34235.8 hPa NW 29.6 mph /  47.6 km/h 29.6 mph /  47.6 km/h 47 % 0.0 in /  0 mm 0.0 W/m2 CLR
Lo Temps de Massalio
Compliments of Weather Underground - 1 mb